Meteo Giornale » Osservazioni meteo Stati Uniti (USA) » Abilene
ore: 17:52 - Osservazioni Meteo Abilene
Lat. 32° 24' N Lon. 99° 40' W Alt. 545 metri s.l.m.
37 °C
Poco Nuvoloso
Temp. 24 Ore
26 °C
38 °C
Sud-Est
20.3 Km/h
Dew point 14 °C
Umidità 25 %
Visibilità 10 Km
Il sole sorge alle ore 07:13
Il sole tramonta alle ore 20:04
| Data e Ora | Cielo e Fenomeni | T °C | DP °C | Um. % | Pres. hPa | Vis. km | Vento km/h | |
|---|---|---|---|---|---|---|---|---|
| Oggi h: 17:52 | Poco Nuvoloso | 37 | 14 | 25 | 1014 | 10 | SE 20.3 | |
| Oggi h: 16:52 | Poco Nuvoloso | 37 | 14 | 25 | 1015 | 10 | SE 22.2 | |
| Oggi h: 15:52 | Poco Nuvoloso | 38 | 14 | 24 | 1015 | 10 | SE 16.7 | |
| Oggi h: 14:52 | Nuvoloso | 37 | 15 | 27 | 1016 | 10 | E/SE 20.3 | |
| Oggi h: 13:52 | Molto Nuvoloso | 36 | 16 | 30 | 1017 | 10 | S/SE 14.8 | |
| Oggi h: 12:52 | Poco Nuvoloso | 36 | 17 | 32 | 1017 | 10 | N 0 | |
| Oggi h: 11:52 | Sereno | 34 | 19 | 41 | 1018 | 10 | S 16.7 | |
| Oggi h: 10:52 | Sereno | 33 | 19 | 43 | 1018 | 10 | S 25.9 | |
| Oggi h: 09:52 | Sereno | 30 | 20 | 55 | 1017 | 10 | S/SO 22.2 | |
| Oggi h: 08:52 | Sereno | 28 | 19 | 58 | 1017 | 10 | S 18.5 | |
| Oggi h: 07:52 | Sereno | 26 | 19 | 65 | 1017 | 10 | S 14.8 | |
| Oggi h: 06:52 | Sereno | 26 | 19 | 65 | 1016 | 10 | S 18.5 | |
| Oggi h: 05:52 | Sereno | 26 | 19 | 65 | 1016 | 10 | S 22.2 | |
| Oggi h: 04:52 | Sereno | 27 | 19 | 61 | 1016 | 10 | S 22.2 | |
| Oggi h: 03:52 | Sereno | 27 | 18 | 57 | 1015 | 10 | S/SE 20.3 | |
| Oggi h: 02:52 | Sereno | 27 | 17 | 54 | 1015 | 10 | S/SE 16.7 | |
| Oggi h: 01:52 | Sereno | 28 | 17 | 51 | 1015 | 10 | S/SE 14.8 | |
| Oggi h: 00:52 | Sereno | 29 | 17 | 48 | 1015 | 10 | S/SE 16.7 | |
| Ieri h: 23:52 | Sereno | 30 | 16 | 42 | 1015 | 10 | S/SE 24 | |
| Ieri h: 22:52 | Sereno | 31 | 15 | 37 | 1015 | 10 | S/SE 22.2 | |
| Ieri h: 21:52 | Sereno | 31 | 14 | 35 | 1015 | 10 | SE 16.7 | |
| Ieri h: 20:52 | Sereno | 33 | 14 | 31 | 1014 | 10 | SE 16.7 | |
| Ieri h: 19:52 | Sereno | 35 | 14 | 28 | 1013 | 10 | SE 18.5 | |
| Ieri h: 18:52 | Sereno | 37 | 14 | 25 | 1013 | 10 | SE 18.5 | |



